首页
METAR-TAF:

METAR-TAF

机场 :

道格拉斯, 怀俄明州, 美国

纬度: 42-47-39N, 经度: 105-22-55W, 海拔: 1502米

当前天气观测

该预报发布于38分钟前的02:53 UTC
风速4节,风向
温度 3°C
湿度 48%
气压 1016 hPa
能見度: 16.1公里

METAR: KDGW 300253Z AUTO 17004KT 10SM 03/M07 A2999 RMK AO2 SLP166 T00331067 53007 $

时间: 21:31 (03:31 UTC)


TAF: 丢失

超过4000个机场的气象观测和天气预报(METAR&TAF报告)。

可查询的气象台以黄色和红色小点在地图上表示。

将鼠标移到小点上方,可查看气象台名称。

然后点击查看天气观测和预报。

如需切换地图:点击带黑十字的绿色按钮放大地图;点击带横线的绿色按钮缩小地图;或者点击绿色箭头查看邻近地区的地图。


METAR-TAF: